sensor_id;sensor_type;location;lat;lon;timestamp;temperature;humidity
48836;DHT22;62581;47.342;7.908;2023-11-19T00:01:04;7.60;99.90
48836;DHT22;62581;47.342;7.908;2023-11-19T00:03:32;7.60;99.90
48836;DHT22;62581;47.342;7.908;2023-11-19T00:06:00;7.70;99.90
48836;DHT22;62581;47.342;7.908;2023-11-19T00:08:29;7.70;99.90
48836;DHT22;62581;47.342;7.908;2023-11-19T00:10:56;7.70;99.90
48836;DHT22;62581;47.342;7.908;2023-11-19T00:13:23;7.80;99.90
48836;DHT22;62581;47.342;7.908;2023-11-19T00:15:51;7.80;99.90
48836;DHT22;62581;47.342;7.908;2023-11-19T00:18:18;7.80;99.90
48836;DHT22;62581;47.342;7.908;2023-11-19T00:20:45;7.80;99.90
48836;DHT22;62581;47.342;7.908;2023-11-19T00:23:12;7.90;99.90
48836;DHT22;62581;47.342;7.908;2023-11-19T00:25:41;7.80;99.90
48836;DHT22;62581;47.342;7.908;2023-11-19T00:28:08;7.90;99.90
48836;DHT22;62581;47.342;7.908;2023-11-19T00:30:35;7.90;99.90
48836;DHT22;62581;47.342;7.908;2023-11-19T00:33:02;7.90;99.90
48836;DHT22;62581;47.342;7.908;2023-11-19T00:35:29;7.90;99.90
48836;DHT22;62581;47.342;7.908;2023-11-19T00:37:57;7.90;99.90
48836;DHT22;62581;47.342;7.908;2023-11-19T00:40:24;7.90;99.90
48836;DHT22;62581;47.342;7.908;2023-11-19T00:42:52;7.80;99.90
48836;DHT22;62581;47.342;7.908;2023-11-19T00:45:19;7.70;99.90
48836;DHT22;62581;47.342;7.908;2023-11-19T00:47:46;7.70;99.90
48836;DHT22;62581;47.342;7.908;2023-11-19T00:50:14;7.70;99.90
48836;DHT22;62581;47.342;7.908;2023-11-19T00:52:41;7.70;99.90
48836;DHT22;62581;47.342;7.908;2023-11-19T00:55:08;7.60;99.90
48836;DHT22;62581;47.342;7.908;2023-11-19T00:57:37;7.60;99.90
48836;DHT22;62581;47.342;7.908;2023-11-19T01:00:06;7.50;99.90
48836;DHT22;62581;47.342;7.908;2023-11-19T01:02:44;7.60;99.90
48836;DHT22;62581;47.342;7.908;2023-11-19T01:05:11;7.60;99.90
48836;DHT22;62581;47.342;7.908;2023-11-19T01:07:39;7.70;99.90
48836;DHT22;62581;47.342;7.908;2023-11-19T01:10:07;7.60;99.90
48836;DHT22;62581;47.342;7.908;2023-11-19T01:12:34;7.60;99.90
48836;DHT22;62581;47.342;7.908;2023-11-19T01:15:01;7.60;99.90
48836;DHT22;62581;47.342;7.908;2023-11-19T01:17:29;7.60;99.90
48836;DHT22;62581;47.342;7.908;2023-11-19T01:19:57;7.60;99.90
48836;DHT22;62581;47.342;7.908;2023-11-19T01:22:24;7.60;99.90
48836;DHT22;62581;47.342;7.908;2023-11-19T01:24:51;7.60;99.90
48836;DHT22;62581;47.342;7.908;2023-11-19T01:27:20;7.60;99.90
48836;DHT22;62581;47.342;7.908;2023-11-19T01:29:47;7.60;99.90
48836;DHT22;62581;47.342;7.908;2023-11-19T01:32:13;7.60;99.90
48836;DHT22;62581;47.342;7.908;2023-11-19T01:34:42;7.70;99.90
48836;DHT22;62581;47.342;7.908;2023-11-19T01:37:09;7.70;99.90
48836;DHT22;62581;47.342;7.908;2023-11-19T01:39:37;7.70;99.90
48836;DHT22;62581;47.342;7.908;2023-11-19T01:42:05;7.80;99.90
48836;DHT22;62581;47.342;7.908;2023-11-19T01:44:32;7.70;99.90
48836;DHT22;62581;47.342;7.908;2023-11-19T01:46:59;7.80;99.90
48836;DHT22;62581;47.342;7.908;2023-11-19T01:49:26;7.90;99.90
48836;DHT22;62581;47.342;7.908;2023-11-19T01:51:57;8.00;99.90
48836;DHT22;62581;47.342;7.908;2023-11-19T01:54:24;8.10;99.90
48836;DHT22;62581;47.342;7.908;2023-11-19T01:56:53;8.30;99.90
48836;DHT22;62581;47.342;7.908;2023-11-19T01:59:24;8.30;99.90
48836;DHT22;62581;47.342;7.908;2023-11-19T02:01:53;8.20;99.90
48836;DHT22;62581;47.342;7.908;2023-11-19T02:04:21;8.20;99.90
48836;DHT22;62581;47.342;7.908;2023-11-19T02:06:51;8.10;99.90
48836;DHT22;62581;47.342;7.908;2023-11-19T02:09:20;8.10;99.90
48836;DHT22;62581;47.342;7.908;2023-11-19T02:11:47;8.10;99.90
48836;DHT22;62581;47.342;7.908;2023-11-19T02:14:17;8.20;99.90
48836;DHT22;62581;47.342;7.908;2023-11-19T02:16:45;8.20;99.90
48836;DHT22;62581;47.342;7.908;2023-11-19T02:19:12;8.20;99.90
48836;DHT22;62581;47.342;7.908;2023-11-19T02:21:39;8.30;99.90
48836;DHT22;62581;47.342;7.908;2023-11-19T02:24:11;8.40;99.90
48836;DHT22;62581;47.342;7.908;2023-11-19T02:26:47;8.50;99.90
48836;DHT22;62581;47.342;7.908;2023-11-19T02:29:16;8.50;99.90
48836;DHT22;62581;47.342;7.908;2023-11-19T02:31:43;8.50;99.90
48836;DHT22;62581;47.342;7.908;2023-11-19T02:34:10;8.60;99.90
48836;DHT22;62581;47.342;7.908;2023-11-19T02:36:38;8.60;99.90
48836;DHT22;62581;47.342;7.908;2023-11-19T02:39:07;8.70;99.90
48836;DHT22;62581;47.342;7.908;2023-11-19T02:41:37;8.70;99.90
48836;DHT22;62581;47.342;7.908;2023-11-19T02:44:05;8.70;99.90
48836;DHT22;62581;47.342;7.908;2023-11-19T02:46:34;8.70;99.90
48836;DHT22;62581;47.342;7.908;2023-11-19T02:49:01;8.70;99.90
48836;DHT22;62581;47.342;7.908;2023-11-19T02:51:28;8.70;99.90
48836;DHT22;62581;47.342;7.908;2023-11-19T02:53:56;8.70;99.90
48836;DHT22;62581;47.342;7.908;2023-11-19T02:56:23;8.60;99.90
48836;DHT22;62581;47.342;7.908;2023-11-19T02:58:52;8.60;99.90
48836;DHT22;62581;47.342;7.908;2023-11-19T03:01:22;8.60;99.90
48836;DHT22;62581;47.342;7.908;2023-11-19T03:03:57;8.60;99.90
48836;DHT22;62581;47.342;7.908;2023-11-19T03:06:24;8.60;99.90
48836;DHT22;62581;47.342;7.908;2023-11-19T03:08:53;8.60;99.90
48836;DHT22;62581;47.342;7.908;2023-11-19T03:11:19;8.60;99.90
48836;DHT22;62581;47.342;7.908;2023-11-19T03:13:46;8.60;99.90
48836;DHT22;62581;47.342;7.908;2023-11-19T03:16:13;8.60;99.90
48836;DHT22;62581;47.342;7.908;2023-11-19T03:18:40;8.60;99.90
48836;DHT22;62581;47.342;7.908;2023-11-19T03:21:09;8.60;99.90
48836;DHT22;62581;47.342;7.908;2023-11-19T03:23:36;8.60;99.90
48836;DHT22;62581;47.342;7.908;2023-11-19T03:26:05;8.60;99.90
48836;DHT22;62581;47.342;7.908;2023-11-19T03:28:33;8.60;99.90
48836;DHT22;62581;47.342;7.908;2023-11-19T03:31:01;8.50;99.90
48836;DHT22;62581;47.342;7.908;2023-11-19T03:33:27;8.50;99.90
48836;DHT22;62581;47.342;7.908;2023-11-19T03:35:56;8.60;99.90
48836;DHT22;62581;47.342;7.908;2023-11-19T03:38:24;8.50;99.90
48836;DHT22;62581;47.342;7.908;2023-11-19T03:40:51;8.60;99.90
48836;DHT22;62581;47.342;7.908;2023-11-19T03:43:18;8.50;99.90
48836;DHT22;62581;47.342;7.908;2023-11-19T03:45:45;8.60;99.90
48836;DHT22;62581;47.342;7.908;2023-11-19T03:48:13;8.60;99.90
48836;DHT22;62581;47.342;7.908;2023-11-19T03:50:42;8.70;99.90
48836;DHT22;62581;47.342;7.908;2023-11-19T03:53:09;8.70;99.90
48836;DHT22;62581;47.342;7.908;2023-11-19T03:55:37;8.70;99.90
48836;DHT22;62581;47.342;7.908;2023-11-19T03:58:04;8.60;99.90
48836;DHT22;62581;47.342;7.908;2023-11-19T04:00:32;8.60;99.90
48836;DHT22;62581;47.342;7.908;2023-11-19T04:02:59;8.60;99.90
48836;DHT22;62581;47.342;7.908;2023-11-19T04:05:26;8.70;99.90
48836;DHT22;62581;47.342;7.908;2023-11-19T04:07:53;8.70;99.90
48836;DHT22;62581;47.342;7.908;2023-11-19T04:10:20;8.70;99.90
48836;DHT22;62581;47.342;7.908;2023-11-19T04:12:49;8.70;99.90
48836;DHT22;62581;47.342;7.908;2023-11-19T04:15:16;8.70;99.90
48836;DHT22;62581;47.342;7.908;2023-11-19T04:17:43;8.80;99.90
48836;DHT22;62581;47.342;7.908;2023-11-19T04:20:11;8.80;99.90
48836;DHT22;62581;47.342;7.908;2023-11-19T04:22:39;8.80;99.90
48836;DHT22;62581;47.342;7.908;2023-11-19T04:25:07;8.80;99.90
48836;DHT22;62581;47.342;7.908;2023-11-19T04:27:34;8.80;99.90
48836;DHT22;62581;47.342;7.908;2023-11-19T04:30:03;8.80;99.90
48836;DHT22;62581;47.342;7.908;2023-11-19T04:32:31;8.80;99.90
48836;DHT22;62581;47.342;7.908;2023-11-19T04:34:58;8.80;99.90
48836;DHT22;62581;47.342;7.908;2023-11-19T04:37:25;8.90;99.90
48836;DHT22;62581;47.342;7.908;2023-11-19T04:39:52;8.90;99.90
48836;DHT22;62581;47.342;7.908;2023-11-19T04:42:19;9.00;99.90
48836;DHT22;62581;47.342;7.908;2023-11-19T04:44:48;9.00;99.90
48836;DHT22;62581;47.342;7.908;2023-11-19T04:47:17;9.00;99.90
48836;DHT22;62581;47.342;7.908;2023-11-19T04:49:43;9.00;99.90
48836;DHT22;62581;47.342;7.908;2023-11-19T04:52:11;9.10;99.90
48836;DHT22;62581;47.342;7.908;2023-11-19T04:54:41;9.10;99.90
48836;DHT22;62581;47.342;7.908;2023-11-19T04:57:08;9.00;99.90
48836;DHT22;62581;47.342;7.908;2023-11-19T04:59:36;9.00;99.90
48836;DHT22;62581;47.342;7.908;2023-11-19T05:02:04;9.00;99.90
48836;DHT22;62581;47.342;7.908;2023-11-19T05:04:32;8.90;99.90
48836;DHT22;62581;47.342;7.908;2023-11-19T05:06:59;8.90;99.90
48836;DHT22;62581;47.342;7.908;2023-11-19T05:09:26;8.90;99.90
48836;DHT22;62581;47.342;7.908;2023-11-19T05:11:53;8.90;99.90
48836;DHT22;62581;47.342;7.908;2023-11-19T05:14:20;8.90;99.90
48836;DHT22;62581;47.342;7.908;2023-11-19T05:16:47;8.90;99.90
48836;DHT22;62581;47.342;7.908;2023-11-19T05:19:14;8.90;99.90
48836;DHT22;62581;47.342;7.908;2023-11-19T05:21:43;8.90;99.90
48836;DHT22;62581;47.342;7.908;2023-11-19T05:24:10;8.90;99.90
48836;DHT22;62581;47.342;7.908;2023-11-19T05:26:38;9.00;99.90
48836;DHT22;62581;47.342;7.908;2023-11-19T05:29:06;9.10;99.90
48836;DHT22;62581;47.342;7.908;2023-11-19T05:31:33;9.10;99.90
48836;DHT22;62581;47.342;7.908;2023-11-19T05:34:00;9.20;99.90
48836;DHT22;62581;47.342;7.908;2023-11-19T05:36:26;9.20;99.90
48836;DHT22;62581;47.342;7.908;2023-11-19T05:38:56;9.30;99.90
48836;DHT22;62581;47.342;7.908;2023-11-19T05:41:23;9.30;99.90
48836;DHT22;62581;47.342;7.908;2023-11-19T05:43:50;9.20;99.90
48836;DHT22;62581;47.342;7.908;2023-11-19T05:46:17;9.30;99.90
48836;DHT22;62581;47.342;7.908;2023-11-19T05:48:44;9.20;99.90
48836;DHT22;62581;47.342;7.908;2023-11-19T05:51:12;9.20;99.90
48836;DHT22;62581;47.342;7.908;2023-11-19T05:53:39;9.20;99.90
48836;DHT22;62581;47.342;7.908;2023-11-19T05:56:08;9.20;99.90
48836;DHT22;62581;47.342;7.908;2023-11-19T05:58:35;9.20;99.90
48836;DHT22;62581;47.342;7.908;2023-11-19T06:01:03;9.20;99.90
48836;DHT22;62581;47.342;7.908;2023-11-19T06:03:32;9.20;99.90
48836;DHT22;62581;47.342;7.908;2023-11-19T06:05:59;9.20;99.90
48836;DHT22;62581;47.342;7.908;2023-11-19T06:08:26;9.20;99.90
48836;DHT22;62581;47.342;7.908;2023-11-19T06:10:53;9.20;99.90
48836;DHT22;62581;47.342;7.908;2023-11-19T06:13:22;9.20;99.90
48836;DHT22;62581;47.342;7.908;2023-11-19T06:15:49;9.30;99.90
48836;DHT22;62581;47.342;7.908;2023-11-19T06:18:17;9.30;99.90
48836;DHT22;62581;47.342;7.908;2023-11-19T06:20:45;9.30;99.90
48836;DHT22;62581;47.342;7.908;2023-11-19T06:23:12;9.30;99.90
48836;DHT22;62581;47.342;7.908;2023-11-19T06:25:39;9.40;99.90
48836;DHT22;62581;47.342;7.908;2023-11-19T06:28:06;9.40;99.90
48836;DHT22;62581;47.342;7.908;2023-11-19T06:30:35;9.40;99.90
48836;DHT22;62581;47.342;7.908;2023-11-19T06:33:02;9.40;99.90
48836;DHT22;62581;47.342;7.908;2023-11-19T06:35:30;9.40;99.90
48836;DHT22;62581;47.342;7.908;2023-11-19T06:38:02;9.40;99.90
48836;DHT22;62581;47.342;7.908;2023-11-19T06:40:30;9.40;99.90
48836;DHT22;62581;47.342;7.908;2023-11-19T06:42:57;9.50;99.90
48836;DHT22;62581;47.342;7.908;2023-11-19T06:45:24;9.50;99.90
48836;DHT22;62581;47.342;7.908;2023-11-19T06:47:52;9.50;99.90
48836;DHT22;62581;47.342;7.908;2023-11-19T06:50:19;9.50;99.90
48836;DHT22;62581;47.342;7.908;2023-11-19T06:52:46;9.50;99.90
48836;DHT22;62581;47.342;7.908;2023-11-19T06:55:13;9.60;99.90
48836;DHT22;62581;47.342;7.908;2023-11-19T06:57:41;9.60;99.90
48836;DHT22;62581;47.342;7.908;2023-11-19T07:00:10;9.60;99.90
48836;DHT22;62581;47.342;7.908;2023-11-19T07:02:37;9.60;99.90
48836;DHT22;62581;47.342;7.908;2023-11-19T07:05:07;9.60;99.90
48836;DHT22;62581;47.342;7.908;2023-11-19T07:07:34;9.60;99.90
48836;DHT22;62581;47.342;7.908;2023-11-19T07:10:01;9.70;99.90
48836;DHT22;62581;47.342;7.908;2023-11-19T07:12:30;9.70;99.90
48836;DHT22;62581;47.342;7.908;2023-11-19T07:14:57;9.70;99.90
48836;DHT22;62581;47.342;7.908;2023-11-19T07:17:24;9.80;99.90
48836;DHT22;62581;47.342;7.908;2023-11-19T07:19:51;9.80;99.90
48836;DHT22;62581;47.342;7.908;2023-11-19T07:22:19;9.80;99.90
48836;DHT22;62581;47.342;7.908;2023-11-19T07:24:46;9.80;99.90
48836;DHT22;62581;47.342;7.908;2023-11-19T07:27:13;9.80;99.90
48836;DHT22;62581;47.342;7.908;2023-11-19T07:29:43;9.90;99.90
48836;DHT22;62581;47.342;7.908;2023-11-19T07:32:10;9.90;99.90
48836;DHT22;62581;47.342;7.908;2023-11-19T07:34:38;9.90;99.90
48836;DHT22;62581;47.342;7.908;2023-11-19T07:37:05;10.00;99.90
48836;DHT22;62581;47.342;7.908;2023-11-19T07:39:34;10.00;99.90
48836;DHT22;62581;47.342;7.908;2023-11-19T07:42:03;10.00;99.90
48836;DHT22;62581;47.342;7.908;2023-11-19T07:44:30;10.00;99.90
48836;DHT22;62581;47.342;7.908;2023-11-19T07:46:57;10.00;99.90
48836;DHT22;62581;47.342;7.908;2023-11-19T07:49:25;10.10;99.90
48836;DHT22;62581;47.342;7.908;2023-11-19T07:51:52;10.10;99.90
48836;DHT22;62581;47.342;7.908;2023-11-19T07:54:19;10.10;99.90
48836;DHT22;62581;47.342;7.908;2023-11-19T07:56:48;10.10;99.90
48836;DHT22;62581;47.342;7.908;2023-11-19T07:59:16;10.10;99.90
48836;DHT22;62581;47.342;7.908;2023-11-19T08:01:43;10.20;99.90
48836;DHT22;62581;47.342;7.908;2023-11-19T08:04:10;10.20;99.90
48836;DHT22;62581;47.342;7.908;2023-11-19T08:06:37;10.20;99.90
48836;DHT22;62581;47.342;7.908;2023-11-19T08:09:04;10.20;99.90
48836;DHT22;62581;47.342;7.908;2023-11-19T08:11:32;10.20;99.90
48836;DHT22;62581;47.342;7.908;2023-11-19T08:14:00;10.20;99.90
48836;DHT22;62581;47.342;7.908;2023-11-19T08:16:27;10.10;99.90
48836;DHT22;62581;47.342;7.908;2023-11-19T08:18:54;10.10;99.90
48836;DHT22;62581;47.342;7.908;2023-11-19T08:21:22;10.10;99.90
48836;DHT22;62581;47.342;7.908;2023-11-19T08:23:49;10.10;99.90
48836;DHT22;62581;47.342;7.908;2023-11-19T08:26:16;10.10;99.90
48836;DHT22;62581;47.342;7.908;2023-11-19T08:28:43;10.10;99.90
48836;DHT22;62581;47.342;7.908;2023-11-19T08:31:12;10.10;99.90
48836;DHT22;62581;47.342;7.908;2023-11-19T08:33:39;10.10;99.90
48836;DHT22;62581;47.342;7.908;2023-11-19T08:36:07;10.20;99.90
48836;DHT22;62581;47.342;7.908;2023-11-19T08:38:34;10.20;99.90
48836;DHT22;62581;47.342;7.908;2023-11-19T08:41:01;10.20;99.90
48836;DHT22;62581;47.342;7.908;2023-11-19T08:43:28;10.30;99.90
48836;DHT22;62581;47.342;7.908;2023-11-19T08:45:57;10.30;99.90
48836;DHT22;62581;47.342;7.908;2023-11-19T08:48:25;10.40;99.90
48836;DHT22;62581;47.342;7.908;2023-11-19T08:50:52;10.40;99.90
48836;DHT22;62581;47.342;7.908;2023-11-19T08:53:19;10.50;99.90
48836;DHT22;62581;47.342;7.908;2023-11-19T08:55:46;10.50;99.90
48836;DHT22;62581;47.342;7.908;2023-11-19T08:58:15;10.60;99.90
48836;DHT22;62581;47.342;7.908;2023-11-19T09:00:42;10.70;99.90
48836;DHT22;62581;47.342;7.908;2023-11-19T09:03:09;10.70;99.90
48836;DHT22;62581;47.342;7.908;2023-11-19T09:05:37;10.80;99.90
48836;DHT22;62581;47.342;7.908;2023-11-19T09:08:04;10.80;99.90
48836;DHT22;62581;47.342;7.908;2023-11-19T09:10:32;10.80;99.90
48836;DHT22;62581;47.342;7.908;2023-11-19T09:12:59;10.90;99.90
48836;DHT22;62581;47.342;7.908;2023-11-19T09:15:25;10.90;99.90
48836;DHT22;62581;47.342;7.908;2023-11-19T09:17:52;10.80;99.90
48836;DHT22;62581;47.342;7.908;2023-11-19T09:20:19;10.90;99.90
48836;DHT22;62581;47.342;7.908;2023-11-19T09:22:48;10.90;99.90
48836;DHT22;62581;47.342;7.908;2023-11-19T09:25:15;10.80;99.90
48836;DHT22;62581;47.342;7.908;2023-11-19T09:27:43;10.80;99.90
48836;DHT22;62581;47.342;7.908;2023-11-19T09:30:10;10.70;99.90
48836;DHT22;62581;47.342;7.908;2023-11-19T09:32:38;10.70;99.90
48836;DHT22;62581;47.342;7.908;2023-11-19T09:35:06;10.60;99.90
48836;DHT22;62581;47.342;7.908;2023-11-19T09:37:34;10.60;99.90
48836;DHT22;62581;47.342;7.908;2023-11-19T09:40:02;10.70;99.90
48836;DHT22;62581;47.342;7.908;2023-11-19T09:42:31;10.70;99.90
48836;DHT22;62581;47.342;7.908;2023-11-19T09:45:07;10.80;99.90
48836;DHT22;62581;47.342;7.908;2023-11-19T09:47:37;10.90;99.90
48836;DHT22;62581;47.342;7.908;2023-11-19T09:50:05;10.90;99.90
48836;DHT22;62581;47.342;7.908;2023-11-19T09:52:32;10.90;99.90
48836;DHT22;62581;47.342;7.908;2023-11-19T09:54:59;11.00;99.90
48836;DHT22;62581;47.342;7.908;2023-11-19T09:57:30;11.00;99.90
48836;DHT22;62581;47.342;7.908;2023-11-19T09:59:58;11.10;99.90
48836;DHT22;62581;47.342;7.908;2023-11-19T10:02:27;11.20;99.90
48836;DHT22;62581;47.342;7.908;2023-11-19T10:04:55;11.20;99.90
48836;DHT22;62581;47.342;7.908;2023-11-19T10:07:22;11.20;99.90
48836;DHT22;62581;47.342;7.908;2023-11-19T10:09:49;11.30;99.90
48836;DHT22;62581;47.342;7.908;2023-11-19T10:12:16;11.30;99.90
48836;DHT22;62581;47.342;7.908;2023-11-19T10:14:46;11.30;99.90
48836;DHT22;62581;47.342;7.908;2023-11-19T10:17:14;11.40;99.90
48836;DHT22;62581;47.342;7.908;2023-11-19T10:19:41;11.40;99.90
48836;DHT22;62581;47.342;7.908;2023-11-19T10:22:11;11.40;99.90
48836;DHT22;62581;47.342;7.908;2023-11-19T10:24:40;11.40;99.90
48836;DHT22;62581;47.342;7.908;2023-11-19T10:27:07;11.40;99.90
48836;DHT22;62581;47.342;7.908;2023-11-19T10:29:36;11.40;99.90
48836;DHT22;62581;47.342;7.908;2023-11-19T10:32:12;11.50;99.90
48836;DHT22;62581;47.342;7.908;2023-11-19T10:34:42;11.50;99.90
48836;DHT22;62581;47.342;7.908;2023-11-19T10:37:27;11.60;99.90
48836;DHT22;62581;47.342;7.908;2023-11-19T10:39:55;11.60;99.90
48836;DHT22;62581;47.342;7.908;2023-11-19T10:42:22;11.70;99.90
48836;DHT22;62581;47.342;7.908;2023-11-19T10:44:50;11.70;99.90
48836;DHT22;62581;47.342;7.908;2023-11-19T10:47:19;11.70;99.90
48836;DHT22;62581;47.342;7.908;2023-11-19T10:49:48;11.70;99.90
48836;DHT22;62581;47.342;7.908;2023-11-19T10:52:18;11.80;99.90
48836;DHT22;62581;47.342;7.908;2023-11-19T10:54:49;11.90;99.90
48836;DHT22;62581;47.342;7.908;2023-11-19T10:57:20;11.90;99.90
48836;DHT22;62581;47.342;7.908;2023-11-19T10:59:49;11.90;99.90
48836;DHT22;62581;47.342;7.908;2023-11-19T11:02:24;11.90;99.90
48836;DHT22;62581;47.342;7.908;2023-11-19T11:04:53;12.00;99.90
48836;DHT22;62581;47.342;7.908;2023-11-19T11:07:22;12.00;99.90
48836;DHT22;62581;47.342;7.908;2023-11-19T11:09:52;12.10;99.90
48836;DHT22;62581;47.342;7.908;2023-11-19T11:12:22;12.10;99.90
48836;DHT22;62581;47.342;7.908;2023-11-19T11:14:51;12.10;99.90
48836;DHT22;62581;47.342;7.908;2023-11-19T11:17:24;12.10;99.90
48836;DHT22;62581;47.342;7.908;2023-11-19T11:19:52;12.10;99.90
48836;DHT22;62581;47.342;7.908;2023-11-19T11:22:21;12.10;99.90
48836;DHT22;62581;47.342;7.908;2023-11-19T11:25:11;12.20;99.90
48836;DHT22;62581;47.342;7.908;2023-11-19T11:27:59;12.20;99.90
48836;DHT22;62581;47.342;7.908;2023-11-19T11:30:39;12.40;99.90
48836;DHT22;62581;47.342;7.908;2023-11-19T11:33:25;12.40;99.90
48836;DHT22;62581;47.342;7.908;2023-11-19T11:36:01;12.40;99.90
48836;DHT22;62581;47.342;7.908;2023-11-19T11:38:46;12.40;99.90
48836;DHT22;62581;47.342;7.908;2023-11-19T11:41:19;12.40;99.90
48836;DHT22;62581;47.342;7.908;2023-11-19T11:43:47;12.50;99.90
48836;DHT22;62581;47.342;7.908;2023-11-19T11:49:27;12.50;99.90
48836;DHT22;62581;47.342;7.908;2023-11-19T11:51:59;12.50;99.90
48836;DHT22;62581;47.342;7.908;2023-11-19T11:54:26;12.60;99.90
48836;DHT22;62581;47.342;7.908;2023-11-19T11:57:08;12.70;99.90
48836;DHT22;62581;47.342;7.908;2023-11-19T11:59:45;12.80;99.90
48836;DHT22;62581;47.342;7.908;2023-11-19T12:02:14;12.90;99.90
48836;DHT22;62581;47.342;7.908;2023-11-19T12:04:46;12.90;99.90
48836;DHT22;62581;47.342;7.908;2023-11-19T12:07:16;13.10;99.90
48836;DHT22;62581;47.342;7.908;2023-11-19T12:09:47;13.00;99.90
48836;DHT22;62581;47.342;7.908;2023-11-19T12:12:19;13.00;99.90
48836;DHT22;62581;47.342;7.908;2023-11-19T12:15:04;13.00;99.90
48836;DHT22;62581;47.342;7.908;2023-11-19T12:17:50;13.00;99.90
48836;DHT22;62581;47.342;7.908;2023-11-19T12:20:22;13.10;99.90
48836;DHT22;62581;47.342;7.908;2023-11-19T12:22:49;13.10;99.90
48836;DHT22;62581;47.342;7.908;2023-11-19T12:25:17;13.10;99.90
48836;DHT22;62581;47.342;7.908;2023-11-19T12:27:46;13.10;99.90
48836;DHT22;62581;47.342;7.908;2023-11-19T12:30:17;13.20;99.90
48836;DHT22;62581;47.342;7.908;2023-11-19T12:32:46;13.30;99.90
48836;DHT22;62581;47.342;7.908;2023-11-19T12:35:15;13.40;99.90
48836;DHT22;62581;47.342;7.908;2023-11-19T12:37:44;13.50;99.90
48836;DHT22;62581;47.342;7.908;2023-11-19T12:40:16;13.60;99.90
48836;DHT22;62581;47.342;7.908;2023-11-19T12:42:44;13.70;99.90
48836;DHT22;62581;47.342;7.908;2023-11-19T12:45:11;13.70;99.90
48836;DHT22;62581;47.342;7.908;2023-11-19T12:47:39;13.70;99.90
48836;DHT22;62581;47.342;7.908;2023-11-19T12:50:07;13.90;99.90
48836;DHT22;62581;47.342;7.908;2023-11-19T12:52:35;14.10;99.90
48836;DHT22;62581;47.342;7.908;2023-11-19T12:55:04;14.20;99.90
48836;DHT22;62581;47.342;7.908;2023-11-19T12:57:39;14.10;99.90
48836;DHT22;62581;47.342;7.908;2023-11-19T13:00:07;14.00;99.90
48836;DHT22;62581;47.342;7.908;2023-11-19T13:02:46;14.00;99.90
48836;DHT22;62581;47.342;7.908;2023-11-19T13:05:29;13.90;99.90
48836;DHT22;62581;47.342;7.908;2023-11-19T13:07:59;13.90;99.90
48836;DHT22;62581;47.342;7.908;2023-11-19T13:10:28;13.90;99.90
48836;DHT22;62581;47.342;7.908;2023-11-19T13:13:04;13.90;99.90
48836;DHT22;62581;47.342;7.908;2023-11-19T13:15:32;13.80;99.90
48836;DHT22;62581;47.342;7.908;2023-11-19T13:17:59;13.80;99.90
48836;DHT22;62581;47.342;7.908;2023-11-19T13:20:26;13.70;99.90
48836;DHT22;62581;47.342;7.908;2023-11-19T13:22:57;13.70;99.90
48836;DHT22;62581;47.342;7.908;2023-11-19T13:25:24;13.70;99.90
48836;DHT22;62581;47.342;7.908;2023-11-19T13:27:53;13.60;99.90
48836;DHT22;62581;47.342;7.908;2023-11-19T13:30:20;13.60;99.90
48836;DHT22;62581;47.342;7.908;2023-11-19T13:32:48;13.60;99.90
48836;DHT22;62581;47.342;7.908;2023-11-19T13:35:15;13.50;99.90
48836;DHT22;62581;47.342;7.908;2023-11-19T13:37:43;13.50;99.90
48836;DHT22;62581;47.342;7.908;2023-11-19T13:40:10;13.60;99.90
48836;DHT22;62581;47.342;7.908;2023-11-19T13:42:39;13.60;99.90
48836;DHT22;62581;47.342;7.908;2023-11-19T13:45:09;13.70;99.90
48836;DHT22;62581;47.342;7.908;2023-11-19T13:47:38;13.70;99.90
48836;DHT22;62581;47.342;7.908;2023-11-19T13:50:08;13.70;99.90
48836;DHT22;62581;47.342;7.908;2023-11-19T13:52:35;13.70;99.90
48836;DHT22;62581;47.342;7.908;2023-11-19T13:55:04;13.80;99.90
48836;DHT22;62581;47.342;7.908;2023-11-19T13:57:32;13.80;99.90
48836;DHT22;62581;47.342;7.908;2023-11-19T14:00:00;13.70;99.90
48836;DHT22;62581;47.342;7.908;2023-11-19T14:02:29;13.70;99.90
48836;DHT22;62581;47.342;7.908;2023-11-19T14:04:56;13.70;99.90
48836;DHT22;62581;47.342;7.908;2023-11-19T14:07:23;13.70;99.90
48836;DHT22;62581;47.342;7.908;2023-11-19T14:09:50;13.70;99.90
48836;DHT22;62581;47.342;7.908;2023-11-19T14:12:17;13.60;99.90
48836;DHT22;62581;47.342;7.908;2023-11-19T14:14:44;13.60;99.90
48836;DHT22;62581;47.342;7.908;2023-11-19T14:17:11;13.50;99.90
48836;DHT22;62581;47.342;7.908;2023-11-19T14:19:39;13.50;99.90
48836;DHT22;62581;47.342;7.908;2023-11-19T14:22:06;13.50;99.90
48836;DHT22;62581;47.342;7.908;2023-11-19T14:24:34;13.40;99.90
48836;DHT22;62581;47.342;7.908;2023-11-19T14:27:01;13.40;99.90
48836;DHT22;62581;47.342;7.908;2023-11-19T14:29:28;13.40;99.90
48836;DHT22;62581;47.342;7.908;2023-11-19T14:31:55;13.40;99.90
48836;DHT22;62581;47.342;7.908;2023-11-19T14:34:22;13.30;99.90
48836;DHT22;62581;47.342;7.908;2023-11-19T14:36:51;13.30;99.90
48836;DHT22;62581;47.342;7.908;2023-11-19T14:39:19;13.30;99.90
48836;DHT22;62581;47.342;7.908;2023-11-19T14:41:46;13.30;99.90
48836;DHT22;62581;47.342;7.908;2023-11-19T14:44:13;13.30;99.90
48836;DHT22;62581;47.342;7.908;2023-11-19T14:46:40;13.30;99.90
48836;DHT22;62581;47.342;7.908;2023-11-19T14:49:07;13.30;99.90
48836;DHT22;62581;47.342;7.908;2023-11-19T14:51:35;13.20;99.90
48836;DHT22;62581;47.342;7.908;2023-11-19T14:54:04;13.20;99.90
48836;DHT22;62581;47.342;7.908;2023-11-19T14:56:31;13.20;99.90
48836;DHT22;62581;47.342;7.908;2023-11-19T14:58:59;13.20;99.90
48836;DHT22;62581;47.342;7.908;2023-11-19T15:01:26;13.10;99.90
48836;DHT22;62581;47.342;7.908;2023-11-19T15:03:54;13.20;99.90
48836;DHT22;62581;47.342;7.908;2023-11-19T15:06:23;13.10;99.90
48836;DHT22;62581;47.342;7.908;2023-11-19T15:08:52;13.10;99.90
48836;DHT22;62581;47.342;7.908;2023-11-19T15:11:21;13.10;99.90
48836;DHT22;62581;47.342;7.908;2023-11-19T15:13:49;13.10;99.90
48836;DHT22;62581;47.342;7.908;2023-11-19T15:16:16;13.10;99.90
48836;DHT22;62581;47.342;7.908;2023-11-19T15:18:50;13.00;99.90
48836;DHT22;62581;47.342;7.908;2023-11-19T15:21:17;13.10;99.90
48836;DHT22;62581;47.342;7.908;2023-11-19T15:23:44;13.10;99.90
48836;DHT22;62581;47.342;7.908;2023-11-19T15:26:11;13.10;99.90
48836;DHT22;62581;47.342;7.908;2023-11-19T15:28:40;13.10;99.90
48836;DHT22;62581;47.342;7.908;2023-11-19T15:31:07;13.10;99.90
48836;DHT22;62581;47.342;7.908;2023-11-19T15:33:35;13.10;99.90
48836;DHT22;62581;47.342;7.908;2023-11-19T15:36:02;13.10;99.90
48836;DHT22;62581;47.342;7.908;2023-11-19T15:38:33;13.10;99.90
48836;DHT22;62581;47.342;7.908;2023-11-19T15:41:00;13.10;99.90
48836;DHT22;62581;47.342;7.908;2023-11-19T15:43:27;13.10;99.90
48836;DHT22;62581;47.342;7.908;2023-11-19T15:45:56;13.10;99.90
48836;DHT22;62581;47.342;7.908;2023-11-19T15:48:23;13.20;99.90